Terminal Aerodrome Forecast
Issued by NWS

Home | Current Version | Previous Version | Text Only | Print | Product List | Glossary On
Versions: 1 2 3 4 5 6 7 8 9 10 11 12 13 14 15 16 17 18 19 20 21 22
000
FTUS43 KICT 291328 AAA
TAFHUT
TAF AMD
KHUT 291328Z 2913/3012 34009KT P6SM -TSRA BKN050CB
      TEMPO 2913/2917 VRB15G25KT 3SM TSRA BKN025CB
     FM291700 05014KT P6SM VCTS BKN060CB
     FM292000 07013KT P6SM VCSH BKN080=

USA.gov is the U.S. government's official web portal to all federal, state and local government web resources and services.